• Join FlightAware (Why Join?)
  • Login
  • US Flag 
08:53AM EDT


 

Airport Tracker/Info


-or-


 

Live Flight TrackerFlight Track Log ✈ N244A ✈ 14-Mar-2014 ✈ KMMU - KMDW

Flight Track Log - Related Links

Times and Time Zones

All times are in EDT time to prevent confusion due to time zone crossing. See the N244A flight status page for this flight to view local times or setup timezone preferences in your user account.

Time Position Orientation Groundspeed Altitude Reporting Facility
EDT Latitude Longitude Course Direction KTS MPH feet Rate Location/Type
10:23AM 40.7500 -74.4333 166° South 162 186 1,700  Level New York TRACON
10:24AM 40.7000 -74.4167 166° South 243 280 2,600 840 Climbing New York TRACON
10:25AM 40.6833 -74.3333 105° East 287 330 3,400 1,200 Climbing New York TRACON
10:26AM 40.7333 -74.2667 45° Northeast 277 319 5,000 1,620 Climbing New York TRACON
10:27AM 40.8167 -74.2833 351° North 285 328 6,900 2,160 Climbing New York TRACON
10:28AM 40.8500 -74.3500 303° West 258 297 9,400 2,940 Climbing New York TRACON
10:29AM 40.8667 -74.4500 282° West 265 305 12,800 3,000 Climbing New York TRACON
10:30AM 40.8756 -74.5061 282° West 281 323 14,500 2,280 Climbing New York Center
10:31AM 40.8800 -74.6269 273° West 306 352 16,700 1,260 Climbing New York Center
10:32AM 40.8844 -74.7400 273° West 336 387 17,100 540 Climbing New York Center
10:33AM 40.9006 -74.8781 279° West 342 394 17,800 1,200 Climbing New York Center
10:34AM 40.8944 -74.9958 266° West 357 411 19,600 2,400 Climbing New York Center
10:35AM 40.8708 -75.1258 257° West 362 417 22,600 2,520 Climbing New York Center
10:36AM 40.8425 -75.2694 255° West 368 423 24,800 1,620 Climbing New York Center
10:37AM 40.8186 -75.4078 257° West 373 429 25,900 1,500 Climbing New York Center
10:38AM 40.7900 -75.5483 255° West 385 443 27,900 1,980 Climbing New York Center
10:39AM 40.7678 -75.6839 258° West 390 449 29,900 1,620 Climbing New York Center
10:40AM 40.7467 -75.7919 256° West 390 449 31,200 1,380 Climbing New York Center
10:41AM 40.7164 -75.9567 256° West 390 449 32,700 1,260 Climbing New York Center
10:42AM 40.6894 -76.0944 256° West 390 449 33,800 1,080 Climbing New York Center
10:43AM 40.6731 -76.2297 261° West 390 449 34,900 1,020 Climbing New York Center
10:44AM 40.6833 -76.3647 276° West 372 428 35,900 540 Climbing New York Center
10:45AM 40.7022 -76.4950 281° West 372 428 36,000  Climbing New York Center
10:46AM 40.7225 -76.6336 281° West 372 428 36,000  Level New York Center
10:47AM 40.7428 -76.7669 281° West 377 434 36,000  Level New York Center
10:48AM 40.7628 -76.9083 281° West 382 440 36,000  Level New York Center
10:49AM 40.7886 -77.0478 284° West 387 445 36,000  Level New York Center
10:50AM 40.8500 -77.1467 309° West 393 452 36,000  Level New York Center
10:51AM 40.9500 -77.2275 329° Northwest 393 452 36,000  Level New York Center
10:52AM 41.0208 -77.3389 310° West 400 460 36,000  Level New York Center
10:53AM 41.0642 -77.5444 286° West 404 465 36,000  Level Cleveland Center
10:54AM 41.0767 -77.7178 276° West 400 460 36,000  Level Cleveland Center
10:55AM 41.0903 -77.8622 277° West 399 459 36,000  Level Cleveland Center
10:56AM 41.1053 -78.0078 278° West 400 460 36,000  Level Cleveland Center
10:57AM 41.1183 -78.1533 277° West 402 463 36,000  Level Cleveland Center
10:58AM 41.1306 -78.2950 277° West 402 463 36,000  Level Cleveland Center
10:59AM 41.1469 -78.4728 277° West 404 465 36,000  Level Cleveland Center
11:01AM 41.1594 -78.6225 276° West 408 470 36,000  Level Cleveland Center
11:02AM 41.1700 -78.7653 276° West 397 457 36,000  Level Cleveland Center
11:03AM 41.1806 -78.9125 275° West 400 460 36,000  Level Cleveland Center
11:04AM 41.1950 -79.0783 277° West 400 460 36,000  Level Cleveland Center
11:05AM 41.2053 -79.2253 275° West 400 460 36,000  Level Cleveland Center
11:06AM 41.2172 -79.3806 276° West 400 460 36,000  Level Cleveland Center
11:07AM 41.2286 -79.5256 276° West 399 459 36,000  Level Cleveland Center
11:08AM 41.2386 -79.6642 276° West 400 460 36,000  Level Cleveland Center
11:09AM 41.2503 -79.8103 276° West 400 460 36,000  Level Cleveland Center
11:10AM 41.2619 -79.9867 275° West 400 460 36,000  Level Cleveland Center
11:11AM 41.2706 -80.1128 275° West 401 461 36,000  Level Cleveland Center
11:12AM 41.2836 -80.2925 276° West 406 467 36,000  Level Cleveland Center
11:13AM 41.2919 -80.4392 274° West 403 464 36,000  Level Cleveland Center
11:14AM 41.3022 -80.5892 275° West 403 464 36,000  Level Cleveland Center
11:15AM 41.3122 -80.7400 275° West 404 465 36,000  Level Cleveland Center
11:16AM 41.3231 -80.8908 276° West 404 465 36,000  Level Cleveland Center
11:17AM 41.3308 -81.0428 274° West 407 468 36,000  Level Cleveland Center
11:18AM 41.3403 -81.1939 275° West 408 470 36,000  Level Cleveland Center
11:19AM 41.3511 -81.3683 275° West 404 465 36,000  Level Cleveland Center
11:20AM 41.3575 -81.5128 273° West 405 466 36,000  Level Cleveland Center
11:21AM 41.3667 -81.6606 275° West 405 466 36,000  Level Cleveland Center
11:22AM 41.3769 -81.8044 275° West 400 460 36,000  Level Cleveland Center
11:23AM 41.3822 -81.9525 273° West 400 460 36,000  Level Cleveland Center
11:24AM 41.3922 -82.1294 274° West 400 460 36,000  Level Cleveland Center
11:25AM 41.3997 -82.2800 274° West 401 461 36,000  Level Cleveland Center
11:26AM 41.4078 -82.4319 274° West 404 465 36,000  Level Cleveland Center
11:27AM 41.4156 -82.5811 274° West 401 461 36,000  Level Cleveland Center
11:28AM 41.4208 -82.7319 273° West 402 463 36,000  Level Cleveland Center
11:29AM 41.4283 -82.8825 274° West 403 464 36,000  Level Cleveland Center
11:30AM 41.4336 -83.0336 273° West 403 464 36,000  Level Cleveland Center
11:31AM 41.4394 -83.1803 273° West 404 465 36,000  Level Cleveland Center
11:32AM 41.4453 -83.3289 273° West 404 465 36,000  Level Cleveland Center
11:33AM 41.4550 -83.5092 274° West 404 465 36,000  Level Cleveland Center
11:34AM 41.4600 -83.6575 273° West 404 465 36,000  Level Cleveland Center
11:36AM 41.4650 -83.8064 273° West 404 465 36,000  Level Cleveland Center
11:37AM 41.4694 -83.9569 272° West 405 466 36,000  Level Cleveland Center
11:38AM 41.4756 -84.1064 273° West 404 465 36,000 -540 Level Cleveland Center
11:39AM 41.4806 -84.2636 272° West 410 472 35,000 -1,440 Descending Cleveland Center
11:40AM 41.4864 -84.4097 273° West 398 458 33,100 -2,400 Descending Chicago Center
11:41AM 41.4914 -84.5811 272° West 387 445 30,100 -1,500 Descending Chicago Center
11:42AM 41.4956 -84.7244 272° West 387 445 30,000 -60 Descending Chicago Center
11:43AM 41.4997 -84.8692 272° West 391 450 30,000 -720 Level Chicago Center
11:45AM 41.5081 -85.1631 272° West 396 456 27,900 -1,320 Descending Chicago Center
11:46AM 41.5119 -85.3117 272° West 397 457 26,000 -1,800 Descending Chicago Center
11:47AM 41.5139 -85.4564 271° West 383 441 24,300 -1,860 Descending Chicago Center
11:48AM 41.5175 -85.5967 272° West 372 428 22,200 -2,040 Descending Chicago Center
11:49AM 41.5192 -85.7358 271° West 372 428 20,200 -2,280 Descending Chicago Center
11:50AM 41.5231 -85.8950 272° West 355 409 17,600 -2,280 Descending Chicago Center
11:51AM 41.5236 -86.0186 270° West 336 387 15,600 -2,040 Descending Chicago Center
11:52AM 41.5261 -86.1375 272° West 322 371 13,500 -2,040 Descending Chicago Center
11:53AM 41.5239 -86.2533 269° West 314 361 11,400 -1,800 Descending Chicago Center
11:54AM 41.5208 -86.3725 268° West 322 371 9,900 -720 Descending Chicago Center
11:55AM 41.5231 -86.4939 271° West 326 375 10,000  Climbing Chicago Center
11:56AM 41.5200 -86.6347 268° West 318 366 10,000 -60 Level Chicago Center
11:57AM 41.5211 -86.7544 271° West 319 367 9,900 -660 Descending Chicago Center
11:58AM 41.5206 -86.8647 270° West 271 312 8,700 -1,200 Descending Chicago Center
11:59AM 41.5181 -86.9564 268° West 248 285 7,500 -1,140 Descending Chicago Center
12:00PM 41.5169 -87.0500 269° West 253 291 6,400 -780 Descending Chicago Center
12:01PM 41.5194 -87.1517 272° West 256 295 6,000 -600 Descending Chicago Center
12:02PM 41.5778 -87.2233 317° Northwest 286 329 5,200 -960 Descending Chicago Center
12:03PM 41.6419 -87.2875 323° Northwest 267 307 4,100 -1,020 Descending Chicago Center
12:04PM 41.6900 -87.3431 319° Northwest 234 269 3,100 -540 Descending Chicago Center
12:05PM 41.7339 -87.4042 314° West 229 264 3,000 -60 Descending Chicago Center
12:07PM 41.7867 -87.4692 317° Northwest 238 274 3,000  Level Chicago Center
12:08PM 41.8294 -87.5242 316° Northwest 217 250 3,000 -300 Level Chicago Center
12:09PM 41.8478 -87.5917 290° West 183 211 2,400 -300 Descending Chicago Center
12:10PM 41.8458 -87.6447 267° West 146 168 2,400 -300 Level Chicago Center
12:11PM 41.8308 -87.6861 244° Southwest 122 140 1,800 -540 Descending Chicago Center
12:12PM 41.8103 -87.7200 231° Southwest 109 125 1,300 -540 Descending Chicago Center
12:13PM 41.7922 -87.7422 223° Southwest 106 122 700 -600 Descending Chicago Center